sensor_id;sensor_type;location;lat;lon;timestamp;temperature;humidity
71142;DHT22;58808;59.366;17.970;2024-01-11T00:00:59;1.10;99.90
71142;DHT22;58808;59.366;17.970;2024-01-11T00:03:24;1.10;99.90
71142;DHT22;58808;59.366;17.970;2024-01-11T00:05:50;1.10;99.90
71142;DHT22;58808;59.366;17.970;2024-01-11T00:08:16;1.20;99.90
71142;DHT22;58808;59.366;17.970;2024-01-11T00:10:42;1.20;99.90
71142;DHT22;58808;59.366;17.970;2024-01-11T00:13:07;1.20;99.90
71142;DHT22;58808;59.366;17.970;2024-01-11T00:15:33;1.20;99.90
71142;DHT22;58808;59.366;17.970;2024-01-11T00:17:59;1.30;99.90
71142;DHT22;58808;59.366;17.970;2024-01-11T00:20:24;1.40;99.90
71142;DHT22;58808;59.366;17.970;2024-01-11T00:22:50;1.40;99.90
71142;DHT22;58808;59.366;17.970;2024-01-11T00:25:16;1.40;99.90
71142;DHT22;58808;59.366;17.970;2024-01-11T00:27:41;1.50;99.90
71142;DHT22;58808;59.366;17.970;2024-01-11T00:30:07;1.50;99.90
71142;DHT22;58808;59.366;17.970;2024-01-11T00:32:33;1.50;99.90
71142;DHT22;58808;59.366;17.970;2024-01-11T00:34:59;1.50;99.90
71142;DHT22;58808;59.366;17.970;2024-01-11T00:37:24;1.50;99.90
71142;DHT22;58808;59.366;17.970;2024-01-11T00:39:50;1.50;99.90
71142;DHT22;58808;59.366;17.970;2024-01-11T00:42:16;1.60;99.90
71142;DHT22;58808;59.366;17.970;2024-01-11T00:44:42;1.50;99.90
71142;DHT22;58808;59.366;17.970;2024-01-11T00:47:08;1.50;99.90
71142;DHT22;58808;59.366;17.970;2024-01-11T00:49:33;1.50;99.90
71142;DHT22;58808;59.366;17.970;2024-01-11T00:51:59;1.50;99.90
71142;DHT22;58808;59.366;17.970;2024-01-11T00:54:25;1.60;99.90
71142;DHT22;58808;59.366;17.970;2024-01-11T00:56:50;1.60;99.90
71142;DHT22;58808;59.366;17.970;2024-01-11T00:59:18;1.60;99.90
71142;DHT22;58808;59.366;17.970;2024-01-11T01:01:48;1.60;99.90
71142;DHT22;58808;59.366;17.970;2024-01-11T01:04:14;1.60;99.90
71142;DHT22;58808;59.366;17.970;2024-01-11T01:06:41;1.50;99.90
71142;DHT22;58808;59.366;17.970;2024-01-11T01:09:07;1.50;99.90
71142;DHT22;58808;59.366;17.970;2024-01-11T01:11:32;1.50;99.90
71142;DHT22;58808;59.366;17.970;2024-01-11T01:13:58;1.50;99.90
71142;DHT22;58808;59.366;17.970;2024-01-11T01:16:24;1.40;99.90
71142;DHT22;58808;59.366;17.970;2024-01-11T01:18:49;1.40;99.90
71142;DHT22;58808;59.366;17.970;2024-01-11T01:21:17;1.50;99.90
71142;DHT22;58808;59.366;17.970;2024-01-11T01:23:43;1.50;99.90
71142;DHT22;58808;59.366;17.970;2024-01-11T01:26:09;1.50;99.90
71142;DHT22;58808;59.366;17.970;2024-01-11T01:28:37;1.50;99.90
71142;DHT22;58808;59.366;17.970;2024-01-11T01:31:03;1.40;99.90
71142;DHT22;58808;59.366;17.970;2024-01-11T01:33:29;1.40;99.90
71142;DHT22;58808;59.366;17.970;2024-01-11T01:35:54;1.40;99.90
71142;DHT22;58808;59.366;17.970;2024-01-11T01:38:20;1.40;99.90
71142;DHT22;58808;59.366;17.970;2024-01-11T01:40:48;1.40;99.90
71142;DHT22;58808;59.366;17.970;2024-01-11T01:43:13;1.40;99.90
71142;DHT22;58808;59.366;17.970;2024-01-11T01:45:39;1.40;99.90
71142;DHT22;58808;59.366;17.970;2024-01-11T01:48:05;1.40;99.90
71142;DHT22;58808;59.366;17.970;2024-01-11T01:50:32;1.30;99.90
71142;DHT22;58808;59.366;17.970;2024-01-11T01:52:58;1.30;99.90
71142;DHT22;58808;59.366;17.970;2024-01-11T01:55:25;1.30;99.90
71142;DHT22;58808;59.366;17.970;2024-01-11T01:57:52;1.40;99.90
71142;DHT22;58808;59.366;17.970;2024-01-11T02:00:18;1.40;99.90
71142;DHT22;58808;59.366;17.970;2024-01-11T02:02:44;1.40;99.90
71142;DHT22;58808;59.366;17.970;2024-01-11T02:05:13;1.40;99.90
71142;DHT22;58808;59.366;17.970;2024-01-11T02:07:40;1.40;99.90
71142;DHT22;58808;59.366;17.970;2024-01-11T02:10:07;1.40;99.90
71142;DHT22;58808;59.366;17.970;2024-01-11T02:12:34;1.40;99.90
71142;DHT22;58808;59.366;17.970;2024-01-11T02:15:00;1.40;99.90
71142;DHT22;58808;59.366;17.970;2024-01-11T02:17:28;1.40;99.90
71142;DHT22;58808;59.366;17.970;2024-01-11T02:19:54;1.40;99.90
71142;DHT22;58808;59.366;17.970;2024-01-11T02:22:32;1.50;99.90
71142;DHT22;58808;59.366;17.970;2024-01-11T02:25:00;1.50;99.90
71142;DHT22;58808;59.366;17.970;2024-01-11T02:27:25;1.50;99.90
71142;DHT22;58808;59.366;17.970;2024-01-11T02:29:51;1.50;99.90
71142;DHT22;58808;59.366;17.970;2024-01-11T02:32:17;1.60;99.90
71142;DHT22;58808;59.366;17.970;2024-01-11T02:34:43;1.60;99.90
71142;DHT22;58808;59.366;17.970;2024-01-11T02:37:09;1.60;99.90
71142;DHT22;58808;59.366;17.970;2024-01-11T02:39:35;1.60;99.90
71142;DHT22;58808;59.366;17.970;2024-01-11T02:42:01;1.60;99.90
71142;DHT22;58808;59.366;17.970;2024-01-11T02:44:27;1.60;99.90
71142;DHT22;58808;59.366;17.970;2024-01-11T02:46:53;1.60;99.90
71142;DHT22;58808;59.366;17.970;2024-01-11T02:49:18;1.60;99.90
71142;DHT22;58808;59.366;17.970;2024-01-11T02:51:44;1.60;99.90
71142;DHT22;58808;59.366;17.970;2024-01-11T02:54:10;1.70;99.90
71142;DHT22;58808;59.366;17.970;2024-01-11T02:56:36;1.70;99.90
71142;DHT22;58808;59.366;17.970;2024-01-11T02:59:02;1.80;99.90
71142;DHT22;58808;59.366;17.970;2024-01-11T03:01:27;1.80;99.90
71142;DHT22;58808;59.366;17.970;2024-01-11T03:03:54;1.80;99.90
71142;DHT22;58808;59.366;17.970;2024-01-11T03:06:20;1.80;99.90
71142;DHT22;58808;59.366;17.970;2024-01-11T03:08:48;1.80;99.90
71142;DHT22;58808;59.366;17.970;2024-01-11T03:11:14;1.80;99.90
71142;DHT22;58808;59.366;17.970;2024-01-11T03:13:40;1.80;99.90
71142;DHT22;58808;59.366;17.970;2024-01-11T03:16:05;1.80;99.90
71142;DHT22;58808;59.366;17.970;2024-01-11T03:18:31;1.80;99.90
71142;DHT22;58808;59.366;17.970;2024-01-11T03:20:57;1.80;99.90
71142;DHT22;58808;59.366;17.970;2024-01-11T03:23:23;1.80;99.90
71142;DHT22;58808;59.366;17.970;2024-01-11T03:25:49;1.70;99.90
71142;DHT22;58808;59.366;17.970;2024-01-11T03:28:15;1.70;99.90
71142;DHT22;58808;59.366;17.970;2024-01-11T03:30:41;1.70;99.90
71142;DHT22;58808;59.366;17.970;2024-01-11T03:33:06;1.70;99.90
71142;DHT22;58808;59.366;17.970;2024-01-11T03:35:32;1.80;99.90
71142;DHT22;58808;59.366;17.970;2024-01-11T03:37:58;1.80;99.90
71142;DHT22;58808;59.366;17.970;2024-01-11T03:40:23;1.80;99.90
71142;DHT22;58808;59.366;17.970;2024-01-11T03:42:49;1.80;99.90
71142;DHT22;58808;59.366;17.970;2024-01-11T03:45:18;1.90;99.90
71142;DHT22;58808;59.366;17.970;2024-01-11T03:47:44;1.90;99.90
71142;DHT22;58808;59.366;17.970;2024-01-11T03:50:10;1.90;99.90
71142;DHT22;58808;59.366;17.970;2024-01-11T03:52:36;1.90;99.90
71142;DHT22;58808;59.366;17.970;2024-01-11T03:55:02;1.90;99.90
71142;DHT22;58808;59.366;17.970;2024-01-11T03:57:27;1.90;99.90
71142;DHT22;58808;59.366;17.970;2024-01-11T03:59:53;1.90;99.90
71142;DHT22;58808;59.366;17.970;2024-01-11T04:02:19;2.10;99.90
71142;DHT22;58808;59.366;17.970;2024-01-11T04:04:45;2.10;99.90
71142;DHT22;58808;59.366;17.970;2024-01-11T04:07:10;2.10;99.90
71142;DHT22;58808;59.366;17.970;2024-01-11T04:09:39;2.10;99.90
71142;DHT22;58808;59.366;17.970;2024-01-11T04:12:05;2.10;99.90
71142;DHT22;58808;59.366;17.970;2024-01-11T04:14:31;2.20;99.90
71142;DHT22;58808;59.366;17.970;2024-01-11T04:16:57;2.20;99.90
71142;DHT22;58808;59.366;17.970;2024-01-11T04:19:23;2.10;99.90
71142;DHT22;58808;59.366;17.970;2024-01-11T04:21:49;2.20;99.90
71142;DHT22;58808;59.366;17.970;2024-01-11T04:24:14;2.20;99.90
71142;DHT22;58808;59.366;17.970;2024-01-11T04:26:40;2.20;99.90
71142;DHT22;58808;59.366;17.970;2024-01-11T04:29:06;2.20;99.90
71142;DHT22;58808;59.366;17.970;2024-01-11T04:31:33;2.20;99.90
71142;DHT22;58808;59.366;17.970;2024-01-11T04:33:59;2.10;99.90
71142;DHT22;58808;59.366;17.970;2024-01-11T04:36:24;2.10;99.90
71142;DHT22;58808;59.366;17.970;2024-01-11T04:38:50;2.10;99.90
71142;DHT22;58808;59.366;17.970;2024-01-11T04:41:16;2.10;99.90
71142;DHT22;58808;59.366;17.970;2024-01-11T04:43:43;2.00;99.90
71142;DHT22;58808;59.366;17.970;2024-01-11T04:46:22;2.00;99.90
71142;DHT22;58808;59.366;17.970;2024-01-11T04:48:49;2.10;99.90
71142;DHT22;58808;59.366;17.970;2024-01-11T04:51:16;2.20;99.90
71142;DHT22;58808;59.366;17.970;2024-01-11T04:53:43;2.30;99.90
71142;DHT22;58808;59.366;17.970;2024-01-11T04:56:10;2.30;99.90
71142;DHT22;58808;59.366;17.970;2024-01-11T04:58:38;2.40;99.90
71142;DHT22;58808;59.366;17.970;2024-01-11T05:01:15;2.40;99.90
71142;DHT22;58808;59.366;17.970;2024-01-11T05:03:44;2.40;99.90
71142;DHT22;58808;59.366;17.970;2024-01-11T05:06:18;2.50;99.90
71142;DHT22;58808;59.366;17.970;2024-01-11T05:08:47;2.50;99.90
71142;DHT22;58808;59.366;17.970;2024-01-11T05:11:21;2.50;99.90
71142;DHT22;58808;59.366;17.970;2024-01-11T05:13:47;2.50;99.90
71142;DHT22;58808;59.366;17.970;2024-01-11T05:18:44;2.40;99.90
71142;DHT22;58808;59.366;17.970;2024-01-11T05:21:09;2.40;99.90
71142;DHT22;58808;59.366;17.970;2024-01-11T05:23:35;2.40;99.90
71142;DHT22;58808;59.366;17.970;2024-01-11T05:26:00;2.30;99.90
71142;DHT22;58808;59.366;17.970;2024-01-11T05:28:27;2.30;99.90
71142;DHT22;58808;59.366;17.970;2024-01-11T05:30:53;2.30;99.90
71142;DHT22;58808;59.366;17.970;2024-01-11T05:33:20;2.30;99.90
71142;DHT22;58808;59.366;17.970;2024-01-11T05:35:46;2.30;99.90
71142;DHT22;58808;59.366;17.970;2024-01-11T05:38:11;2.20;99.90
71142;DHT22;58808;59.366;17.970;2024-01-11T05:40:37;2.30;99.90
71142;DHT22;58808;59.366;17.970;2024-01-11T05:43:03;2.30;99.90
71142;DHT22;58808;59.366;17.970;2024-01-11T05:45:29;2.30;99.90
71142;DHT22;58808;59.366;17.970;2024-01-11T05:47:55;2.20;99.90
71142;DHT22;58808;59.366;17.970;2024-01-11T05:50:21;2.20;99.90
71142;DHT22;58808;59.366;17.970;2024-01-11T05:52:46;2.20;99.90
71142;DHT22;58808;59.366;17.970;2024-01-11T05:55:12;2.20;99.90
71142;DHT22;58808;59.366;17.970;2024-01-11T05:57:38;2.20;99.90
71142;DHT22;58808;59.366;17.970;2024-01-11T06:00:05;2.10;99.90
71142;DHT22;58808;59.366;17.970;2024-01-11T06:02:30;2.10;99.90
71142;DHT22;58808;59.366;17.970;2024-01-11T06:04:57;2.00;99.90
71142;DHT22;58808;59.366;17.970;2024-01-11T06:07:22;2.10;99.90
71142;DHT22;58808;59.366;17.970;2024-01-11T06:09:49;2.10;99.90
71142;DHT22;58808;59.366;17.970;2024-01-11T06:12:15;2.10;99.90
71142;DHT22;58808;59.366;17.970;2024-01-11T06:14:40;2.10;99.90
71142;DHT22;58808;59.366;17.970;2024-01-11T06:17:06;2.00;99.90
71142;DHT22;58808;59.366;17.970;2024-01-11T06:19:35;2.00;99.90
71142;DHT22;58808;59.366;17.970;2024-01-11T06:22:00;2.10;99.90
71142;DHT22;58808;59.366;17.970;2024-01-11T06:24:26;2.00;99.90
71142;DHT22;58808;59.366;17.970;2024-01-11T06:26:52;2.00;99.90
71142;DHT22;58808;59.366;17.970;2024-01-11T06:29:17;2.00;99.90
71142;DHT22;58808;59.366;17.970;2024-01-11T06:31:43;2.00;99.90
71142;DHT22;58808;59.366;17.970;2024-01-11T06:34:09;2.00;99.90
71142;DHT22;58808;59.366;17.970;2024-01-11T06:36:34;2.00;99.90
71142;DHT22;58808;59.366;17.970;2024-01-11T06:39:00;2.00;99.90
71142;DHT22;58808;59.366;17.970;2024-01-11T06:41:29;2.00;99.90
71142;DHT22;58808;59.366;17.970;2024-01-11T06:43:55;2.00;99.90
71142;DHT22;58808;59.366;17.970;2024-01-11T06:46:21;2.00;99.90
71142;DHT22;58808;59.366;17.970;2024-01-11T06:48:47;1.90;99.90
71142;DHT22;58808;59.366;17.970;2024-01-11T06:51:15;1.90;99.90
71142;DHT22;58808;59.366;17.970;2024-01-11T06:53:41;1.90;99.90
71142;DHT22;58808;59.366;17.970;2024-01-11T06:56:18;1.90;99.90
71142;DHT22;58808;59.366;17.970;2024-01-11T06:58:44;1.90;99.90
71142;DHT22;58808;59.366;17.970;2024-01-11T07:01:10;1.90;99.90
71142;DHT22;58808;59.366;17.970;2024-01-11T07:03:37;1.80;99.90
71142;DHT22;58808;59.366;17.970;2024-01-11T07:06:03;1.80;99.90
71142;DHT22;58808;59.366;17.970;2024-01-11T07:08:29;1.80;99.90
71142;DHT22;58808;59.366;17.970;2024-01-11T07:10:55;1.80;99.90
71142;DHT22;58808;59.366;17.970;2024-01-11T07:13:22;1.80;99.90
71142;DHT22;58808;59.366;17.970;2024-01-11T07:15:51;1.90;99.90
71142;DHT22;58808;59.366;17.970;2024-01-11T07:18:17;1.80;99.90
71142;DHT22;58808;59.366;17.970;2024-01-11T07:20:44;1.80;99.90
71142;DHT22;58808;59.366;17.970;2024-01-11T07:23:09;1.80;99.90
71142;DHT22;58808;59.366;17.970;2024-01-11T07:25:35;1.80;99.90
71142;DHT22;58808;59.366;17.970;2024-01-11T07:28:01;1.80;99.90
71142;DHT22;58808;59.366;17.970;2024-01-11T07:30:27;1.80;99.90
71142;DHT22;58808;59.366;17.970;2024-01-11T07:32:52;1.70;99.90
71142;DHT22;58808;59.366;17.970;2024-01-11T07:35:19;1.70;99.90
71142;DHT22;58808;59.366;17.970;2024-01-11T07:37:45;1.70;99.90
71142;DHT22;58808;59.366;17.970;2024-01-11T07:40:11;1.70;99.90
71142;DHT22;58808;59.366;17.970;2024-01-11T07:42:37;1.70;99.90
71142;DHT22;58808;59.366;17.970;2024-01-11T07:45:07;1.70;99.90
71142;DHT22;58808;59.366;17.970;2024-01-11T07:47:33;1.70;99.90
71142;DHT22;58808;59.366;17.970;2024-01-11T07:49:59;1.70;99.90
71142;DHT22;58808;59.366;17.970;2024-01-11T07:52:25;1.70;99.90
71142;DHT22;58808;59.366;17.970;2024-01-11T07:54:51;1.70;99.90
71142;DHT22;58808;59.366;17.970;2024-01-11T07:57:19;1.60;99.90
71142;DHT22;58808;59.366;17.970;2024-01-11T07:59:45;1.60;99.90
71142;DHT22;58808;59.366;17.970;2024-01-11T08:02:10;1.60;99.90
71142;DHT22;58808;59.366;17.970;2024-01-11T08:04:36;1.60;99.90
71142;DHT22;58808;59.366;17.970;2024-01-11T08:07:04;1.50;99.90
71142;DHT22;58808;59.366;17.970;2024-01-11T08:09:31;1.50;99.90
71142;DHT22;58808;59.366;17.970;2024-01-11T08:11:56;1.50;99.90
71142;DHT22;58808;59.366;17.970;2024-01-11T08:14:22;1.50;99.90
71142;DHT22;58808;59.366;17.970;2024-01-11T08:16:48;1.50;99.90
71142;DHT22;58808;59.366;17.970;2024-01-11T08:19:13;1.50;99.90
71142;DHT22;58808;59.366;17.970;2024-01-11T08:21:40;1.60;99.90
71142;DHT22;58808;59.366;17.970;2024-01-11T08:24:07;1.60;99.90
71142;DHT22;58808;59.366;17.970;2024-01-11T08:26:33;1.60;99.90
71142;DHT22;58808;59.366;17.970;2024-01-11T08:28:58;1.60;99.90
71142;DHT22;58808;59.366;17.970;2024-01-11T08:31:24;1.60;99.90
71142;DHT22;58808;59.366;17.970;2024-01-11T08:33:50;1.60;99.90
71142;DHT22;58808;59.366;17.970;2024-01-11T08:36:16;1.60;99.90
71142;DHT22;58808;59.366;17.970;2024-01-11T08:38:42;1.60;99.90
71142;DHT22;58808;59.366;17.970;2024-01-11T08:41:08;1.50;99.90
71142;DHT22;58808;59.366;17.970;2024-01-11T08:43:33;1.60;99.90
71142;DHT22;58808;59.366;17.970;2024-01-11T08:45:59;1.50;99.90
71142;DHT22;58808;59.366;17.970;2024-01-11T08:48:25;1.50;99.90
71142;DHT22;58808;59.366;17.970;2024-01-11T08:50:51;1.50;99.90
71142;DHT22;58808;59.366;17.970;2024-01-11T08:53:17;1.60;99.90
71142;DHT22;58808;59.366;17.970;2024-01-11T08:55:43;1.60;99.90
71142;DHT22;58808;59.366;17.970;2024-01-11T08:58:09;1.60;99.90
71142;DHT22;58808;59.366;17.970;2024-01-11T09:00:37;1.50;99.90
71142;DHT22;58808;59.366;17.970;2024-01-11T09:03:03;1.50;99.90
71142;DHT22;58808;59.366;17.970;2024-01-11T09:05:29;1.40;99.90
71142;DHT22;58808;59.366;17.970;2024-01-11T09:07:55;1.40;99.90
71142;DHT22;58808;59.366;17.970;2024-01-11T09:10:21;1.30;99.90
71142;DHT22;58808;59.366;17.970;2024-01-11T09:12:46;1.30;99.90
71142;DHT22;58808;59.366;17.970;2024-01-11T09:15:12;1.30;99.90
71142;DHT22;58808;59.366;17.970;2024-01-11T09:17:38;1.30;99.90
71142;DHT22;58808;59.366;17.970;2024-01-11T09:20:04;1.20;99.90
71142;DHT22;58808;59.366;17.970;2024-01-11T09:22:31;1.10;99.90
71142;DHT22;58808;59.366;17.970;2024-01-11T09:24:56;1.10;99.90
71142;DHT22;58808;59.366;17.970;2024-01-11T09:27:22;1.20;99.90
71142;DHT22;58808;59.366;17.970;2024-01-11T09:29:48;1.20;99.90
71142;DHT22;58808;59.366;17.970;2024-01-11T09:32:13;1.20;99.90
71142;DHT22;58808;59.366;17.970;2024-01-11T09:34:39;1.20;99.90
71142;DHT22;58808;59.366;17.970;2024-01-11T09:37:05;1.30;99.90
71142;DHT22;58808;59.366;17.970;2024-01-11T09:39:31;1.30;99.90
71142;DHT22;58808;59.366;17.970;2024-01-11T09:42:09;1.20;99.90
71142;DHT22;58808;59.366;17.970;2024-01-11T09:44:36;1.20;99.90
71142;DHT22;58808;59.366;17.970;2024-01-11T09:47:03;1.20;99.90
71142;DHT22;58808;59.366;17.970;2024-01-11T09:49:31;1.10;99.90
71142;DHT22;58808;59.366;17.970;2024-01-11T09:51:59;1.10;99.90
71142;DHT22;58808;59.366;17.970;2024-01-11T09:54:27;1.00;99.90
71142;DHT22;58808;59.366;17.970;2024-01-11T09:56:54;1.00;99.90
71142;DHT22;58808;59.366;17.970;2024-01-11T09:59:21;1.00;99.90
71142;DHT22;58808;59.366;17.970;2024-01-11T10:01:50;1.00;99.90
71142;DHT22;58808;59.366;17.970;2024-01-11T10:04:16;1.10;99.90
71142;DHT22;58808;59.366;17.970;2024-01-11T10:06:43;1.10;99.90
71142;DHT22;58808;59.366;17.970;2024-01-11T10:09:09;1.10;99.90
71142;DHT22;58808;59.366;17.970;2024-01-11T10:11:35;1.10;99.90
71142;DHT22;58808;59.366;17.970;2024-01-11T10:14:01;1.20;99.90
71142;DHT22;58808;59.366;17.970;2024-01-11T10:16:28;1.20;99.90
71142;DHT22;58808;59.366;17.970;2024-01-11T10:18:57;1.30;99.90
71142;DHT22;58808;59.366;17.970;2024-01-11T10:21:27;1.30;99.90
71142;DHT22;58808;59.366;17.970;2024-01-11T10:23:52;1.30;99.90
71142;DHT22;58808;59.366;17.970;2024-01-11T10:26:19;1.30;99.90
71142;DHT22;58808;59.366;17.970;2024-01-11T10:28:47;1.30;99.90
71142;DHT22;58808;59.366;17.970;2024-01-11T10:31:13;1.30;99.90
71142;DHT22;58808;59.366;17.970;2024-01-11T10:33:42;1.30;99.90
71142;DHT22;58808;59.366;17.970;2024-01-11T10:36:08;1.30;99.90
71142;DHT22;58808;59.366;17.970;2024-01-11T10:38:39;1.30;99.90
71142;DHT22;58808;59.366;17.970;2024-01-11T10:41:05;1.30;99.90
71142;DHT22;58808;59.366;17.970;2024-01-11T10:43:32;1.20;99.90
71142;DHT22;58808;59.366;17.970;2024-01-11T10:46:02;1.10;99.90
71142;DHT22;58808;59.366;17.970;2024-01-11T10:48:31;1.10;99.90
71142;DHT22;58808;59.366;17.970;2024-01-11T10:51:01;1.20;99.90
71142;DHT22;58808;59.366;17.970;2024-01-11T10:53:46;1.20;99.90
71142;DHT22;58808;59.366;17.970;2024-01-11T10:56:13;1.10;99.90
71142;DHT22;58808;59.366;17.970;2024-01-11T10:58:42;1.20;99.90
71142;DHT22;58808;59.366;17.970;2024-01-11T11:01:09;1.20;99.90
71142;DHT22;58808;59.366;17.970;2024-01-11T11:03:36;1.30;99.90
71142;DHT22;58808;59.366;17.970;2024-01-11T11:06:05;1.20;99.90
71142;DHT22;58808;59.366;17.970;2024-01-11T11:08:32;1.20;99.90
71142;DHT22;58808;59.366;17.970;2024-01-11T11:10:59;1.10;99.90
71142;DHT22;58808;59.366;17.970;2024-01-11T11:13:26;1.10;99.90
71142;DHT22;58808;59.366;17.970;2024-01-11T11:15:53;1.00;99.90
71142;DHT22;58808;59.366;17.970;2024-01-11T11:18:19;0.90;99.90
71142;DHT22;58808;59.366;17.970;2024-01-11T11:20:47;0.90;99.90
71142;DHT22;58808;59.366;17.970;2024-01-11T11:23:15;0.80;99.90
71142;DHT22;58808;59.366;17.970;2024-01-11T11:25:47;0.80;99.90
71142;DHT22;58808;59.366;17.970;2024-01-11T11:28:14;0.80;99.90
71142;DHT22;58808;59.366;17.970;2024-01-11T11:30:42;0.80;99.90
71142;DHT22;58808;59.366;17.970;2024-01-11T11:33:19;0.70;99.90
71142;DHT22;58808;59.366;17.970;2024-01-11T11:35:51;0.80;99.90
71142;DHT22;58808;59.366;17.970;2024-01-11T11:38:18;0.80;99.90
71142;DHT22;58808;59.366;17.970;2024-01-11T11:40:46;0.80;99.90
71142;DHT22;58808;59.366;17.970;2024-01-11T11:43:13;0.80;99.90
71142;DHT22;58808;59.366;17.970;2024-01-11T11:45:40;0.80;99.90
71142;DHT22;58808;59.366;17.970;2024-01-11T11:51:12;0.70;99.90
71142;DHT22;58808;59.366;17.970;2024-01-11T11:53:39;0.60;99.90
71142;DHT22;58808;59.366;17.970;2024-01-11T11:56:06;0.50;99.90
71142;DHT22;58808;59.366;17.970;2024-01-11T11:58:33;0.50;99.90
71142;DHT22;58808;59.366;17.970;2024-01-11T12:01:00;0.50;99.90
71142;DHT22;58808;59.366;17.970;2024-01-11T12:03:36;0.50;99.90
71142;DHT22;58808;59.366;17.970;2024-01-11T12:06:06;0.50;99.90
71142;DHT22;58808;59.366;17.970;2024-01-11T12:08:34;0.50;99.90
71142;DHT22;58808;59.366;17.970;2024-01-11T12:10:59;0.50;99.90
71142;DHT22;58808;59.366;17.970;2024-01-11T12:13:28;0.50;99.90
71142;DHT22;58808;59.366;17.970;2024-01-11T12:15:55;0.40;99.90
71142;DHT22;58808;59.366;17.970;2024-01-11T12:18:21;0.40;99.90
71142;DHT22;58808;59.366;17.970;2024-01-11T12:20:47;0.30;99.90
71142;DHT22;58808;59.366;17.970;2024-01-11T12:23:13;0.30;99.90
71142;DHT22;58808;59.366;17.970;2024-01-11T12:25:41;0.20;99.90
71142;DHT22;58808;59.366;17.970;2024-01-11T12:28:07;0.20;99.90
71142;DHT22;58808;59.366;17.970;2024-01-11T12:30:33;0.30;99.90
71142;DHT22;58808;59.366;17.970;2024-01-11T12:33:00;0.30;99.90
71142;DHT22;58808;59.366;17.970;2024-01-11T12:35:30;0.30;99.90
71142;DHT22;58808;59.366;17.970;2024-01-11T12:38:03;0.40;99.90
71142;DHT22;58808;59.366;17.970;2024-01-11T12:40:33;0.30;99.90
71142;DHT22;58808;59.366;17.970;2024-01-11T12:43:03;0.20;99.90
71142;DHT22;58808;59.366;17.970;2024-01-11T12:45:29;0.20;99.90
71142;DHT22;58808;59.366;17.970;2024-01-11T12:47:59;0.20;99.90
71142;DHT22;58808;59.366;17.970;2024-01-11T12:50:28;0.30;99.90
71142;DHT22;58808;59.366;17.970;2024-01-11T12:53:11;0.30;99.90
71142;DHT22;58808;59.366;17.970;2024-01-11T12:55:46;0.30;99.90
71142;DHT22;58808;59.366;17.970;2024-01-11T12:58:12;0.30;99.90
71142;DHT22;58808;59.366;17.970;2024-01-11T13:00:38;0.30;99.90
71142;DHT22;58808;59.366;17.970;2024-01-11T13:03:07;0.30;99.90
71142;DHT22;58808;59.366;17.970;2024-01-11T13:05:35;0.40;99.90
71142;DHT22;58808;59.366;17.970;2024-01-11T13:08:10;0.40;99.90
71142;DHT22;58808;59.366;17.970;2024-01-11T13:10:37;0.30;99.90
71142;DHT22;58808;59.366;17.970;2024-01-11T13:13:03;0.30;99.90
71142;DHT22;58808;59.366;17.970;2024-01-11T13:15:29;0.30;99.90
71142;DHT22;58808;59.366;17.970;2024-01-11T13:17:57;0.30;99.90
71142;DHT22;58808;59.366;17.970;2024-01-11T13:20:23;0.30;99.90
71142;DHT22;58808;59.366;17.970;2024-01-11T13:23:10;0.30;99.90
71142;DHT22;58808;59.366;17.970;2024-01-11T13:25:35;0.30;99.90
71142;DHT22;58808;59.366;17.970;2024-01-11T13:28:01;0.30;99.90
71142;DHT22;58808;59.366;17.970;2024-01-11T13:30:27;0.30;99.90
71142;DHT22;58808;59.366;17.970;2024-01-11T13:32:53;0.20;99.90
71142;DHT22;58808;59.366;17.970;2024-01-11T13:35:18;0.20;99.90
71142;DHT22;58808;59.366;17.970;2024-01-11T13:37:45;0.20;99.90
71142;DHT22;58808;59.366;17.970;2024-01-11T13:40:11;0.30;99.90
71142;DHT22;58808;59.366;17.970;2024-01-11T13:42:39;0.30;99.90
71142;DHT22;58808;59.366;17.970;2024-01-11T13:45:05;0.20;99.90
71142;DHT22;58808;59.366;17.970;2024-01-11T13:47:34;0.20;99.90
71142;DHT22;58808;59.366;17.970;2024-01-11T13:50:00;0.20;99.90
71142;DHT22;58808;59.366;17.970;2024-01-11T13:52:26;0.20;99.90
71142;DHT22;58808;59.366;17.970;2024-01-11T13:54:52;0.20;99.90
71142;DHT22;58808;59.366;17.970;2024-01-11T13:57:17;0.20;99.90
71142;DHT22;58808;59.366;17.970;2024-01-11T13:59:43;0.20;99.90
71142;DHT22;58808;59.366;17.970;2024-01-11T14:02:09;0.20;99.90
71142;DHT22;58808;59.366;17.970;2024-01-11T14:04:35;0.20;99.90
71142;DHT22;58808;59.366;17.970;2024-01-11T14:07:01;0.20;99.90
71142;DHT22;58808;59.366;17.970;2024-01-11T14:09:29;0.20;99.90
71142;DHT22;58808;59.366;17.970;2024-01-11T14:11:54;0.10;99.90
71142;DHT22;58808;59.366;17.970;2024-01-11T14:14:20;0.20;99.90
71142;DHT22;58808;59.366;17.970;2024-01-11T14:16:46;0.10;99.90
71142;DHT22;58808;59.366;17.970;2024-01-11T14:19:15;0.10;99.90
71142;DHT22;58808;59.366;17.970;2024-01-11T14:21:41;0.10;99.90
71142;DHT22;58808;59.366;17.970;2024-01-11T14:24:09;0.10;99.90
71142;DHT22;58808;59.366;17.970;2024-01-11T14:26:34;0.10;99.90
71142;DHT22;58808;59.366;17.970;2024-01-11T14:29:00;0.10;99.90
71142;DHT22;58808;59.366;17.970;2024-01-11T14:31:29;0.10;99.90
71142;DHT22;58808;59.366;17.970;2024-01-11T14:33:55;0.10;99.90
71142;DHT22;58808;59.366;17.970;2024-01-11T14:36:20;0.10;99.90
71142;DHT22;58808;59.366;17.970;2024-01-11T14:38:46;0.10;99.90
71142;DHT22;58808;59.366;17.970;2024-01-11T14:41:13;0.10;99.90
71142;DHT22;58808;59.366;17.970;2024-01-11T14:43:39;0.10;99.90
71142;DHT22;58808;59.366;17.970;2024-01-11T14:46:05;0.10;99.90
71142;DHT22;58808;59.366;17.970;2024-01-11T14:48:31;0.10;99.90
71142;DHT22;58808;59.366;17.970;2024-01-11T14:50:57;0.10;99.90
71142;DHT22;58808;59.366;17.970;2024-01-11T14:53:23;0.10;99.90
71142;DHT22;58808;59.366;17.970;2024-01-11T14:55:49;0.10;99.90
71142;DHT22;58808;59.366;17.970;2024-01-11T14:58:15;0.10;99.90
71142;DHT22;58808;59.366;17.970;2024-01-11T15:00:42;0.00;99.90
71142;DHT22;58808;59.366;17.970;2024-01-11T15:03:08;0.10;99.90
71142;DHT22;58808;59.366;17.970;2024-01-11T15:05:33;0.10;99.90
71142;DHT22;58808;59.366;17.970;2024-01-11T15:07:59;0.10;99.90
71142;DHT22;58808;59.366;17.970;2024-01-11T15:10:25;0.00;99.90
71142;DHT22;58808;59.366;17.970;2024-01-11T15:12:51;0.10;99.90
71142;DHT22;58808;59.366;17.970;2024-01-11T15:15:17;0.10;99.90
71142;DHT22;58808;59.366;17.970;2024-01-11T15:17:44;0.10;99.90
71142;DHT22;58808;59.366;17.970;2024-01-11T15:20:10;0.10;99.90
71142;DHT22;58808;59.366;17.970;2024-01-11T15:22:36;0.10;99.90
71142;DHT22;58808;59.366;17.970;2024-01-11T15:25:02;0.10;99.90
71142;DHT22;58808;59.366;17.970;2024-01-11T15:27:27;0.20;99.90
71142;DHT22;58808;59.366;17.970;2024-01-11T15:29:53;0.20;99.90
71142;DHT22;58808;59.366;17.970;2024-01-11T15:32:19;0.20;99.90